createdAt,value
2023-05-14T00:04:12.100Z,53.95
2023-05-14T00:09:20.127Z,56.75
2023-05-14T00:14:28.098Z,58.54
2023-05-14T00:19:36.298Z,59.79
2023-05-14T00:24:44.417Z,61.00
2023-05-14T00:29:52.495Z,61.49
2023-05-14T00:35:00.761Z,67.37
2023-05-14T00:40:13.140Z,66.85
2023-05-14T00:45:21.514Z,52.84
2023-05-14T00:50:29.703Z,55.03
2023-05-14T00:55:38.102Z,57.80
2023-05-14T01:00:46.388Z,59.56
2023-05-14T01:06:05.417Z,61.11
2023-05-14T01:11:21.683Z,61.72
2023-05-14T01:16:31.507Z,61.99
2023-05-14T01:21:44.112Z,72.72
2023-05-14T01:26:52.487Z,58.65
2023-05-14T01:32:07.649Z,54.12
2023-05-14T01:37:16.773Z,57.32
2023-05-14T01:42:25.101Z,59.37
2023-05-14T01:47:33.266Z,60.90
2023-05-14T01:52:41.458Z,62.04
2023-05-14T01:57:49.408Z,70.81
2023-05-14T02:02:57.687Z,61.41
2023-05-14T02:08:06.069Z,53.53
2023-05-14T02:13:14.010Z,56.02
2023-05-14T02:18:21.947Z,58.94
2023-05-14T02:23:40.532Z,60.60
2023-05-14T02:28:49.822Z,61.55
2023-05-14T02:33:57.758Z,71.93
2023-05-14T02:39:05.971Z,59.49
2023-05-14T02:44:13.951Z,53.83
2023-05-14T02:49:21.941Z,56.45
2023-05-14T02:54:29.931Z,58.73
2023-05-14T02:59:37.912Z,59.73
2023-05-14T03:04:46.825Z,60.57
2023-05-14T03:09:54.861Z,60.63
2023-05-14T03:15:02.809Z,61.45
2023-05-14T03:20:14.077Z,74.08
2023-05-14T03:25:22.349Z,61.86
2023-05-14T03:30:30.642Z,53.96
2023-05-14T03:35:38.852Z,56.69
2023-05-14T03:40:47.176Z,59.67
2023-05-14T03:45:55.147Z,59.99
2023-05-14T03:51:03.627Z,61.12
2023-05-14T03:56:11.651Z,61.59
2023-05-14T04:01:19.997Z,72.97
2023-05-14T04:06:28.036Z,59.44
2023-05-14T04:11:36.017Z,53.55
2023-05-14T04:16:44.065Z,55.86
2023-05-14T04:21:52.081Z,57.77
2023-05-14T04:27:01.035Z,58.52
2023-05-14T04:32:09.902Z,59.90
2023-05-14T04:37:17.895Z,60.19
2023-05-14T04:42:26.079Z,60.22
2023-05-14T04:47:34.542Z,61.02
2023-05-14T04:52:42.791Z,60.96
2023-05-14T04:57:50.766Z,61.53
2023-05-14T05:02:59.056Z,71.17
2023-05-14T05:08:07.437Z,55.20
2023-05-14T05:13:17.114Z,52.19
2023-05-14T05:18:25.087Z,54.55
2023-05-14T05:23:33.127Z,56.07
2023-05-14T05:28:41.086Z,56.48
2023-05-14T05:33:49.374Z,57.17
2023-05-14T05:38:58.018Z,58.19
2023-05-14T05:44:06.170Z,58.25
2023-05-14T05:49:14.110Z,58.44
2023-05-14T05:54:22.075Z,58.45
2023-05-14T05:59:30.097Z,58.74
2023-05-14T06:04:38.078Z,58.64
2023-05-14T06:09:46.018Z,58.70
2023-05-14T06:14:55.552Z,58.45
2023-05-14T06:20:05.605Z,58.98
2023-05-14T06:25:14.346Z,59.17
2023-05-14T06:30:22.804Z,58.23
2023-05-14T06:35:31.336Z,57.78
2023-05-14T06:40:39.499Z,57.28
2023-05-14T06:45:49.434Z,57.14
2023-05-14T06:50:57.890Z,57.00
2023-05-14T06:56:06.338Z,56.31
2023-05-14T07:01:14.638Z,55.86
2023-05-14T07:06:23.003Z,55.63
2023-05-14T07:11:30.958Z,55.35
2023-05-14T07:16:39.346Z,54.70
2023-05-14T07:21:47.393Z,53.47
2023-05-14T07:26:57.749Z,53.25
2023-05-14T07:32:06.029Z,53.39
2023-05-14T07:37:13.995Z,53.19
2023-05-14T07:42:34.565Z,52.85
2023-05-14T07:47:44.513Z,51.75
2023-05-14T07:52:52.776Z,51.66
2023-05-14T07:58:01.150Z,51.27
2023-05-14T08:03:09.296Z,50.32
2023-05-14T08:08:17.516Z,49.81
2023-05-14T08:13:34.493Z,48.86
2023-05-14T08:18:50.452Z,47.47
2023-05-14T08:23:58.455Z,47.67
2023-05-14T08:29:07.172Z,46.64
2023-05-14T08:34:16.380Z,44.93
2023-05-14T08:39:24.347Z,42.95
2023-05-14T08:44:49.009Z,42.35
2023-05-14T08:50:03.985Z,40.19
2023-05-14T08:55:13.467Z,39.71
2023-05-14T09:00:22.714Z,38.77
2023-05-14T09:05:30.908Z,37.86
2023-05-14T09:10:40.386Z,37.28
2023-05-14T09:15:49.531Z,37.26
2023-05-14T09:20:58.733Z,37.19
2023-05-14T09:26:08.622Z,36.42
2023-05-14T09:31:16.676Z,36.84
2023-05-14T09:36:27.161Z,35.93
2023-05-14T09:41:38.426Z,36.40
2023-05-14T09:46:46.932Z,36.05
2023-05-14T09:51:55.001Z,34.43
2023-05-14T09:57:03.132Z,35.29
2023-05-14T10:02:23.149Z,35.24
2023-05-14T10:07:36.629Z,35.22
2023-05-14T10:12:49.020Z,34.70
2023-05-14T10:18:01.921Z,33.60
2023-05-14T10:23:10.534Z,33.17
2023-05-14T10:28:18.589Z,33.27
2023-05-14T10:33:26.499Z,33.25
2023-05-14T10:38:37.270Z,31.80
2023-05-14T10:43:45.584Z,32.43
2023-05-14T10:48:53.600Z,31.59
2023-05-14T10:54:03.417Z,32.04
2023-05-14T10:59:11.630Z,32.06
2023-05-14T11:04:24.424Z,32.20
2023-05-14T11:09:32.571Z,32.11
2023-05-14T11:14:40.570Z,33.19
2023-05-14T11:19:51.026Z,33.75
2023-05-14T11:24:59.159Z,33.72
2023-05-14T11:30:13.422Z,34.19
2023-05-14T11:35:21.414Z,34.25
2023-05-14T11:40:29.566Z,34.40
2023-05-14T11:45:37.891Z,34.61
2023-05-14T11:50:50.972Z,34.60
2023-05-14T11:55:59.206Z,34.61
2023-05-14T12:01:07.524Z,34.91
2023-05-14T12:06:15.523Z,34.46
2023-05-14T12:11:24.740Z,34.55
2023-05-14T12:16:35.536Z,34.06
2023-05-14T12:21:51.010Z,33.29
2023-05-14T12:27:02.205Z,33.28
2023-05-14T12:32:13.077Z,33.15
2023-05-14T12:37:21.047Z,33.66
2023-05-14T12:42:29.078Z,33.73
2023-05-14T12:47:37.562Z,33.53
2023-05-14T12:52:56.428Z,33.84
2023-05-14T12:58:08.345Z,33.94
2023-05-14T13:03:32.464Z,34.34
2023-05-14T13:09:04.036Z,34.47
2023-05-14T13:14:12.115Z,34.72
2023-05-14T13:19:34.209Z,34.97
2023-05-14T13:24:50.065Z,34.89
2023-05-14T13:29:58.101Z,35.18
2023-05-14T13:35:10.798Z,36.13
2023-05-14T13:40:20.275Z,36.20
2023-05-14T13:45:29.847Z,36.63
2023-05-14T13:50:37.852Z,36.93
2023-05-14T13:55:49.254Z,36.29
2023-05-14T14:00:57.863Z,36.40
2023-05-14T14:06:06.514Z,36.54
2023-05-14T14:11:17.845Z,37.03
2023-05-14T14:16:25.950Z,37.33
2023-05-14T14:21:34.294Z,36.96
2023-05-14T14:26:42.415Z,36.48
2023-05-14T14:31:50.476Z,35.97
2023-05-14T14:36:58.516Z,36.00
2023-05-14T14:42:07.766Z,36.08
2023-05-14T14:47:15.750Z,36.53
2023-05-14T14:52:24.081Z,36.53
2023-05-14T14:57:32.073Z,36.46
2023-05-14T15:02:42.672Z,36.03
2023-05-14T15:07:50.878Z,35.97
2023-05-14T15:13:00.367Z,36.24
2023-05-14T15:18:08.782Z,35.90
2023-05-14T15:23:16.846Z,36.01
2023-05-14T15:28:24.771Z,36.45
2023-05-14T15:33:34.039Z,36.47
2023-05-14T15:38:42.431Z,36.76
2023-05-14T15:43:50.802Z,36.77
2023-05-14T15:48:58.789Z,36.96
2023-05-14T15:54:07.224Z,37.44
2023-05-14T15:59:16.634Z,37.74
2023-05-14T16:04:25.261Z,38.16
2023-05-14T16:09:33.303Z,38.40
2023-05-14T16:14:42.220Z,38.53
2023-05-14T16:20:02.302Z,38.69
2023-05-14T16:25:34.443Z,39.21
2023-05-14T16:30:48.576Z,39.51
2023-05-14T16:36:12.385Z,39.76
2023-05-14T16:41:21.900Z,39.93
2023-05-14T16:46:30.739Z,40.25
2023-05-14T16:51:43.598Z,40.70
2023-05-14T16:56:51.963Z,40.65
2023-05-14T17:02:00.324Z,41.06
2023-05-14T17:07:12.863Z,41.12
2023-05-14T17:12:47.099Z,41.31
2023-05-14T17:18:15.549Z,41.52
2023-05-14T17:23:42.472Z,41.77
2023-05-14T17:29:06.543Z,41.54
2023-05-14T17:34:30.551Z,41.58
2023-05-14T17:40:04.823Z,41.69
2023-05-14T17:45:22.654Z,41.74
2023-05-14T17:50:30.824Z,41.92
2023-05-14T17:55:45.764Z,42.17
2023-05-14T18:00:54.678Z,42.18
2023-05-14T18:06:02.846Z,42.29
2023-05-14T18:11:10.792Z,42.51
2023-05-14T18:16:18.824Z,42.69
2023-05-14T18:21:26.925Z,43.01
2023-05-14T18:26:37.240Z,43.92
2023-05-14T18:31:46.367Z,44.87
2023-05-14T18:36:54.414Z,44.44
2023-05-14T18:42:02.374Z,44.76
2023-05-14T18:47:10.689Z,46.59
2023-05-14T18:52:18.634Z,47.15
2023-05-14T18:57:27.333Z,48.64
2023-05-14T19:02:35.543Z,49.51
2023-05-14T19:07:48.129Z,50.05
2023-05-14T19:12:56.350Z,50.42
2023-05-14T19:18:04.823Z,50.96
2023-05-14T19:23:12.925Z,51.69
2023-05-14T19:28:21.438Z,52.40
2023-05-14T19:33:29.664Z,52.97
2023-05-14T19:38:37.686Z,52.31
2023-05-14T19:43:45.725Z,53.20
2023-05-14T19:48:53.664Z,53.65
2023-05-14T19:54:01.865Z,54.76
2023-05-14T19:59:09.819Z,54.71
2023-05-14T20:04:18.020Z,55.46
2023-05-14T20:09:26.142Z,55.91
2023-05-14T20:14:34.098Z,55.28
2023-05-14T20:19:43.854Z,54.51
2023-05-14T20:24:52.875Z,54.63
2023-05-14T20:30:00.891Z,56.51
2023-05-14T20:35:10.610Z,56.28
2023-05-14T20:40:18.837Z,57.66
2023-05-14T20:45:27.070Z,57.87
2023-05-14T20:50:35.339Z,57.72
2023-05-14T20:55:44.800Z,56.92
2023-05-14T21:00:52.715Z,56.95
2023-05-14T21:06:01.268Z,57.80
2023-05-14T21:11:09.274Z,58.78
2023-05-14T21:16:17.314Z,58.89
2023-05-14T21:21:26.098Z,59.41
2023-05-14T21:26:36.978Z,60.16
2023-05-14T21:31:45.001Z,59.34
2023-05-14T21:36:53.079Z,58.09
2023-05-14T21:42:01.159Z,58.44
2023-05-14T21:47:12.204Z,61.52
2023-05-14T21:52:20.276Z,60.91
2023-05-14T21:57:31.835Z,76.35
2023-05-14T22:02:42.184Z,67.19
2023-05-14T22:07:50.536Z,57.95
2023-05-14T22:12:58.698Z,56.02
2023-05-14T22:18:07.991Z,59.86
2023-05-14T22:23:16.234Z,64.89
2023-05-14T22:28:24.384Z,66.42
2023-05-14T22:33:33.345Z,56.85
2023-05-14T22:38:43.882Z,58.56
2023-05-14T22:43:52.514Z,65.38
2023-05-14T22:49:00.552Z,64.75
2023-05-14T22:54:08.786Z,56.47
2023-05-14T22:59:16.746Z,59.41
2023-05-14T23:04:24.786Z,62.78
2023-05-14T23:09:32.856Z,68.02
2023-05-14T23:14:40.873Z,57.89
2023-05-14T23:19:48.881Z,56.57
2023-05-14T23:24:56.882Z,60.68
2023-05-14T23:30:05.891Z,67.88
2023-05-14T23:35:13.947Z,60.02
2023-05-14T23:40:22.103Z,56.35
2023-05-14T23:45:30.587Z,60.26
2023-05-14T23:50:39.002Z,61.96
2023-05-14T23:55:47.107Z,70.09
